sensor_id;sensor_type;location;lat;lon;timestamp;P1;durP1;ratioP1;P2;durP2;ratioP2
75044;SDS011;63614;56.026;35.960;2022-09-21T00:03:51;10.48;;;2.17;;
75044;SDS011;63614;56.026;35.960;2022-09-21T00:06:19;4.57;;;2.15;;
75044;SDS011;63614;56.026;35.960;2022-09-21T00:08:47;5.07;;;2.22;;
75044;SDS011;63614;56.026;35.960;2022-09-21T00:11:14;28.10;;;2.88;;
75044;SDS011;63614;56.026;35.960;2022-09-21T00:14:01;26.58;;;3.50;;
75044;SDS011;63614;56.026;35.960;2022-09-21T00:16:29;23.90;;;3.08;;
75044;SDS011;63614;56.026;35.960;2022-09-21T00:18:56;4.57;;;3.20;;
75044;SDS011;63614;56.026;35.960;2022-09-21T00:21:22;5.50;;;2.40;;
75044;SDS011;63614;56.026;35.960;2022-09-21T00:23:48;5.03;;;3.45;;
75044;SDS011;63614;56.026;35.960;2022-09-21T00:26:16;11.45;;;4.53;;
75044;SDS011;63614;56.026;35.960;2022-09-21T00:28:44;6.78;;;3.70;;
75044;SDS011;63614;56.026;35.960;2022-09-21T00:31:12;3.42;;;2.20;;
75044;SDS011;63614;56.026;35.960;2022-09-21T00:33:39;8.20;;;2.60;;
75044;SDS011;63614;56.026;35.960;2022-09-21T00:36:07;7.05;;;2.60;;
75044;SDS011;63614;56.026;35.960;2022-09-21T00:38:34;5.72;;;2.72;;
75044;SDS011;63614;56.026;35.960;2022-09-21T00:41:01;4.93;;;2.92;;
75044;SDS011;63614;56.026;35.960;2022-09-21T00:45:59;8.45;;;2.63;;
75044;SDS011;63614;56.026;35.960;2022-09-21T00:48:29;4.28;;;2.53;;
75044;SDS011;63614;56.026;35.960;2022-09-21T00:50:58;9.00;;;2.63;;
75044;SDS011;63614;56.026;35.960;2022-09-21T00:53:29;6.05;;;2.95;;
75044;SDS011;63614;56.026;35.960;2022-09-21T00:55:56;7.68;;;3.10;;
75044;SDS011;63614;56.026;35.960;2022-09-21T00:58:25;9.02;;;2.50;;
75044;SDS011;63614;56.026;35.960;2022-09-21T01:00:55;3.78;;;2.67;;
75044;SDS011;63614;56.026;35.960;2022-09-21T01:03:24;3.22;;;2.35;;
75044;SDS011;63614;56.026;35.960;2022-09-21T01:05:50;4.28;;;2.70;;
75044;SDS011;63614;56.026;35.960;2022-09-21T01:08:15;10.85;;;2.47;;
75044;SDS011;63614;56.026;35.960;2022-09-21T01:16:42;3.22;;;2.17;;
75044;SDS011;63614;56.026;35.960;2022-09-21T01:22:01;5.60;;;2.22;;
75044;SDS011;63614;56.026;35.960;2022-09-21T01:30:22;9.48;;;2.08;;
75044;SDS011;63614;56.026;35.960;2022-09-21T01:32:51;4.93;;;1.85;;
75044;SDS011;63614;56.026;35.960;2022-09-21T01:35:42;7.32;;;1.70;;
75044;SDS011;63614;56.026;35.960;2022-09-21T01:38:14;7.95;;;1.65;;
75044;SDS011;63614;56.026;35.960;2022-09-21T01:40:49;6.80;;;1.95;;
75044;SDS011;63614;56.026;35.960;2022-09-21T01:43:21;3.20;;;1.73;;
75044;SDS011;63614;56.026;35.960;2022-09-21T01:45:50;9.77;;;1.70;;
75044;SDS011;63614;56.026;35.960;2022-09-21T01:48:19;5.47;;;1.70;;
75044;SDS011;63614;56.026;35.960;2022-09-21T01:50:55;2.72;;;1.70;;
75044;SDS011;63614;56.026;35.960;2022-09-21T01:55:55;3.72;;;1.92;;
75044;SDS011;63614;56.026;35.960;2022-09-21T01:58:35;5.85;;;2.22;;
75044;SDS011;63614;56.026;35.960;2022-09-21T02:01:08;2.83;;;1.90;;
75044;SDS011;63614;56.026;35.960;2022-09-21T02:03:44;4.32;;;1.83;;
75044;SDS011;63614;56.026;35.960;2022-09-21T02:06:23;7.43;;;2.00;;
75044;SDS011;63614;56.026;35.960;2022-09-21T02:08:51;3.17;;;1.95;;
75044;SDS011;63614;56.026;35.960;2022-09-21T02:11:17;3.47;;;2.30;;
75044;SDS011;63614;56.026;35.960;2022-09-21T02:13:44;4.40;;;2.20;;
75044;SDS011;63614;56.026;35.960;2022-09-21T02:30:06;13.13;;;4.90;;
75044;SDS011;63614;56.026;35.960;2022-09-21T02:32:46;9.60;;;4.10;;
75044;SDS011;63614;56.026;35.960;2022-09-21T02:46:41;8.60;;;2.60;;
75044;SDS011;63614;56.026;35.960;2022-09-21T02:49:16;9.90;;;2.88;;
75044;SDS011;63614;56.026;35.960;2022-09-21T02:51:46;6.78;;;3.35;;
75044;SDS011;63614;56.026;35.960;2022-09-21T02:54:16;11.55;;;3.30;;
75044;SDS011;63614;56.026;35.960;2022-09-21T02:56:45;7.07;;;3.40;;
75044;SDS011;63614;56.026;35.960;2022-09-21T02:59:13;8.70;;;3.50;;
75044;SDS011;63614;56.026;35.960;2022-09-21T03:01:41;9.05;;;3.78;;
75044;SDS011;63614;56.026;35.960;2022-09-21T03:04:08;6.83;;;3.50;;
75044;SDS011;63614;56.026;35.960;2022-09-21T03:06:34;5.13;;;3.50;;
75044;SDS011;63614;56.026;35.960;2022-09-21T03:09:00;9.23;;;3.20;;
75044;SDS011;63614;56.026;35.960;2022-09-21T03:11:26;11.23;;;3.70;;
75044;SDS011;63614;56.026;35.960;2022-09-21T03:13:52;12.48;;;3.53;;
75044;SDS011;63614;56.026;35.960;2022-09-21T03:16:18;5.50;;;3.38;;
75044;SDS011;63614;56.026;35.960;2022-09-21T03:18:44;7.43;;;3.50;;
75044;SDS011;63614;56.026;35.960;2022-09-21T03:21:10;6.20;;;3.60;;
75044;SDS011;63614;56.026;35.960;2022-09-21T03:23:36;8.25;;;4.18;;
75044;SDS011;63614;56.026;35.960;2022-09-21T03:26:03;10.85;;;3.60;;
75044;SDS011;63614;56.026;35.960;2022-09-21T03:28:29;10.55;;;3.65;;
75044;SDS011;63614;56.026;35.960;2022-09-21T03:30:55;6.07;;;3.63;;
75044;SDS011;63614;56.026;35.960;2022-09-21T03:33:21;10.70;;;4.80;;
75044;SDS011;63614;56.026;35.960;2022-09-21T03:35:49;7.60;;;3.80;;
75044;SDS011;63614;56.026;35.960;2022-09-21T03:38:17;6.65;;;3.22;;
75044;SDS011;63614;56.026;35.960;2022-09-21T03:40:44;5.88;;;3.15;;
75044;SDS011;63614;56.026;35.960;2022-09-21T03:43:10;8.65;;;3.50;;
75044;SDS011;63614;56.026;35.960;2022-09-21T03:45:36;9.27;;;4.20;;
75044;SDS011;63614;56.026;35.960;2022-09-21T03:48:05;8.13;;;3.97;;
75044;SDS011;63614;56.026;35.960;2022-09-21T03:50:31;6.25;;;3.70;;
75044;SDS011;63614;56.026;35.960;2022-09-21T03:52:57;13.70;;;3.40;;
75044;SDS011;63614;56.026;35.960;2022-09-21T03:55:23;7.53;;;2.88;;
75044;SDS011;63614;56.026;35.960;2022-09-21T03:57:49;6.77;;;3.10;;
75044;SDS011;63614;56.026;35.960;2022-09-21T04:00:15;7.85;;;2.95;;
75044;SDS011;63614;56.026;35.960;2022-09-21T04:02:42;9.15;;;3.15;;
75044;SDS011;63614;56.026;35.960;2022-09-21T04:05:08;5.72;;;3.30;;
75044;SDS011;63614;56.026;35.960;2022-09-21T04:07:36;6.25;;;3.45;;
75044;SDS011;63614;56.026;35.960;2022-09-21T04:10:05;5.78;;;2.95;;
75044;SDS011;63614;56.026;35.960;2022-09-21T04:12:33;6.10;;;3.13;;
75044;SDS011;63614;56.026;35.960;2022-09-21T04:15:00;9.13;;;3.88;;
75044;SDS011;63614;56.026;35.960;2022-09-21T04:17:28;8.90;;;3.30;;
75044;SDS011;63614;56.026;35.960;2022-09-21T04:19:54;5.93;;;3.30;;
75044;SDS011;63614;56.026;35.960;2022-09-21T04:22:20;7.03;;;3.58;;
75044;SDS011;63614;56.026;35.960;2022-09-21T04:24:45;7.60;;;3.83;;
75044;SDS011;63614;56.026;35.960;2022-09-21T04:27:11;6.65;;;4.20;;
75044;SDS011;63614;56.026;35.960;2022-09-21T04:29:37;17.58;;;6.22;;
75044;SDS011;63614;56.026;35.960;2022-09-21T04:32:03;7.97;;;4.45;;
75044;SDS011;63614;56.026;35.960;2022-09-21T04:34:30;9.30;;;4.53;;
75044;SDS011;63614;56.026;35.960;2022-09-21T04:36:56;9.45;;;4.63;;
75044;SDS011;63614;56.026;35.960;2022-09-21T04:39:23;28.67;;;7.40;;
75044;SDS011;63614;56.026;35.960;2022-09-21T04:41:50;12.85;;;6.25;;
75044;SDS011;63614;56.026;35.960;2022-09-21T04:44:15;21.85;;;6.53;;
75044;SDS011;63614;56.026;35.960;2022-09-21T04:46:43;81.95;;;7.47;;
75044;SDS011;63614;56.026;35.960;2022-09-21T04:49:09;81.50;;;7.10;;
75044;SDS011;63614;56.026;35.960;2022-09-21T04:51:35;40.42;;;7.20;;
75044;SDS011;63614;56.026;35.960;2022-09-21T04:54:01;34.33;;;6.68;;
75044;SDS011;63614;56.026;35.960;2022-09-21T04:56:28;16.45;;;6.90;;
75044;SDS011;63614;56.026;35.960;2022-09-21T04:58:54;58.35;;;6.80;;
75044;SDS011;63614;56.026;35.960;2022-09-21T05:01:19;77.15;;;6.57;;
75044;SDS011;63614;56.026;35.960;2022-09-21T05:03:45;13.60;;;5.28;;
75044;SDS011;63614;56.026;35.960;2022-09-21T05:06:11;11.70;;;5.57;;
75044;SDS011;63614;56.026;35.960;2022-09-21T05:08:38;9.18;;;5.45;;
75044;SDS011;63614;56.026;35.960;2022-09-21T05:11:22;11.88;;;5.70;;
75044;SDS011;63614;56.026;35.960;2022-09-21T05:13:49;10.65;;;4.85;;
75044;SDS011;63614;56.026;35.960;2022-09-21T05:16:16;13.90;;;4.88;;
75044;SDS011;63614;56.026;35.960;2022-09-21T05:18:43;8.25;;;5.78;;
75044;SDS011;63614;56.026;35.960;2022-09-21T05:21:13;17.00;;;5.68;;
75044;SDS011;63614;56.026;35.960;2022-09-21T05:23:39;16.73;;;6.10;;
75044;SDS011;63614;56.026;35.960;2022-09-21T05:26:05;17.48;;;6.25;;
75044;SDS011;63614;56.026;35.960;2022-09-21T05:28:31;11.93;;;6.20;;
75044;SDS011;63614;56.026;35.960;2022-09-21T05:33:43;10.30;;;5.38;;
75044;SDS011;63614;56.026;35.960;2022-09-21T05:39:03;11.38;;;5.68;;
75044;SDS011;63614;56.026;35.960;2022-09-21T05:41:29;10.25;;;5.13;;
75044;SDS011;63614;56.026;35.960;2022-09-21T05:43:55;10.55;;;5.10;;
75044;SDS011;63614;56.026;35.960;2022-09-21T05:46:56;17.15;;;5.10;;
75044;SDS011;63614;56.026;35.960;2022-09-21T05:52:14;9.90;;;4.32;;
75044;SDS011;63614;56.026;35.960;2022-09-21T05:57:45;12.93;;;6.13;;
75044;SDS011;63614;56.026;35.960;2022-09-21T06:00:16;7.63;;;5.03;;
75044;SDS011;63614;56.026;35.960;2022-09-21T06:05:27;6.30;;;4.03;;
75044;SDS011;63614;56.026;35.960;2022-09-21T06:07:53;9.68;;;4.22;;
75044;SDS011;63614;56.026;35.960;2022-09-21T06:10:19;8.52;;;3.92;;
75044;SDS011;63614;56.026;35.960;2022-09-21T06:12:44;5.78;;;3.78;;
75044;SDS011;63614;56.026;35.960;2022-09-21T06:15:11;9.07;;;4.45;;
75044;SDS011;63614;56.026;35.960;2022-09-21T06:17:39;5.65;;;3.75;;
75044;SDS011;63614;56.026;35.960;2022-09-21T06:20:06;6.47;;;3.63;;
75044;SDS011;63614;56.026;35.960;2022-09-21T06:22:32;6.50;;;3.03;;
75044;SDS011;63614;56.026;35.960;2022-09-21T06:24:58;3.90;;;3.00;;
75044;SDS011;63614;56.026;35.960;2022-09-21T06:27:24;5.32;;;2.45;;
75044;SDS011;63614;56.026;35.960;2022-09-21T06:29:52;4.95;;;2.92;;
75044;SDS011;63614;56.026;35.960;2022-09-21T06:32:18;5.78;;;2.50;;
75044;SDS011;63614;56.026;35.960;2022-09-21T06:34:44;4.05;;;2.78;;
75044;SDS011;63614;56.026;35.960;2022-09-21T06:37:10;3.88;;;2.50;;
75044;SDS011;63614;56.026;35.960;2022-09-21T06:39:35;4.72;;;2.22;;
75044;SDS011;63614;56.026;35.960;2022-09-21T06:42:01;3.92;;;2.53;;
75044;SDS011;63614;56.026;35.960;2022-09-21T06:44:27;4.18;;;2.50;;
75044;SDS011;63614;56.026;35.960;2022-09-21T06:46:54;3.92;;;1.95;;
75044;SDS011;63614;56.026;35.960;2022-09-21T06:49:20;2.60;;;2.20;;
75044;SDS011;63614;56.026;35.960;2022-09-21T06:51:46;4.43;;;2.40;;
75044;SDS011;63614;56.026;35.960;2022-09-21T06:54:13;2.78;;;2.17;;
75044;SDS011;63614;56.026;35.960;2022-09-21T06:56:39;7.15;;;2.42;;
75044;SDS011;63614;56.026;35.960;2022-09-21T06:59:07;3.33;;;2.38;;
75044;SDS011;63614;56.026;35.960;2022-09-21T07:01:33;3.20;;;2.17;;
75044;SDS011;63614;56.026;35.960;2022-09-21T07:03:59;5.07;;;2.55;;
75044;SDS011;63614;56.026;35.960;2022-09-21T07:06:25;3.42;;;2.40;;
75044;SDS011;63614;56.026;35.960;2022-09-21T07:08:51;3.05;;;2.30;;
75044;SDS011;63614;56.026;35.960;2022-09-21T07:11:20;6.32;;;2.80;;
75044;SDS011;63614;56.026;35.960;2022-09-21T07:13:48;5.25;;;2.58;;
75044;SDS011;63614;56.026;35.960;2022-09-21T07:16:14;3.27;;;2.43;;
75044;SDS011;63614;56.026;35.960;2022-09-21T07:18:41;6.00;;;2.50;;
75044;SDS011;63614;56.026;35.960;2022-09-21T07:21:08;5.13;;;2.80;;
75044;SDS011;63614;56.026;35.960;2022-09-21T07:23:35;4.75;;;2.60;;
75044;SDS011;63614;56.026;35.960;2022-09-21T07:26:11;4.15;;;2.60;;
75044;SDS011;63614;56.026;35.960;2022-09-21T07:28:38;2.75;;;2.20;;
75044;SDS011;63614;56.026;35.960;2022-09-21T07:31:05;4.53;;;2.40;;
75044;SDS011;63614;56.026;35.960;2022-09-21T07:33:35;3.45;;;1.92;;
75044;SDS011;63614;56.026;35.960;2022-09-21T07:36:02;3.78;;;2.40;;
75044;SDS011;63614;56.026;35.960;2022-09-21T07:38:39;2.83;;;1.90;;
75044;SDS011;63614;56.026;35.960;2022-09-21T07:41:07;5.75;;;2.00;;
75044;SDS011;63614;56.026;35.960;2022-09-21T07:43:34;4.10;;;2.00;;
75044;SDS011;63614;56.026;35.960;2022-09-21T07:46:00;5.57;;;2.03;;
75044;SDS011;63614;56.026;35.960;2022-09-21T07:48:27;2.25;;;1.60;;
75044;SDS011;63614;56.026;35.960;2022-09-21T07:50:53;7.07;;;1.80;;
75044;SDS011;63614;56.026;35.960;2022-09-21T07:53:21;4.45;;;2.00;;
75044;SDS011;63614;56.026;35.960;2022-09-21T07:55:47;4.68;;;1.85;;
75044;SDS011;63614;56.026;35.960;2022-09-21T07:58:13;2.92;;;1.80;;
75044;SDS011;63614;56.026;35.960;2022-09-21T08:00:57;2.50;;;1.60;;
75044;SDS011;63614;56.026;35.960;2022-09-21T08:03:23;3.47;;;1.80;;
75044;SDS011;63614;56.026;35.960;2022-09-21T08:05:49;2.30;;;1.77;;
75044;SDS011;63614;56.026;35.960;2022-09-21T08:08:15;5.60;;;1.70;;
75044;SDS011;63614;56.026;35.960;2022-09-21T08:10:41;2.80;;;1.85;;
75044;SDS011;63614;56.026;35.960;2022-09-21T08:13:07;6.97;;;2.50;;
75044;SDS011;63614;56.026;35.960;2022-09-21T08:15:33;5.43;;;2.40;;
75044;SDS011;63614;56.026;35.960;2022-09-21T08:17:58;3.78;;;2.20;;
75044;SDS011;63614;56.026;35.960;2022-09-21T08:20:25;5.32;;;2.20;;
75044;SDS011;63614;56.026;35.960;2022-09-21T08:22:50;3.45;;;2.33;;
75044;SDS011;63614;56.026;35.960;2022-09-21T08:25:18;8.95;;;2.45;;
75044;SDS011;63614;56.026;35.960;2022-09-21T08:27:43;6.07;;;2.20;;
75044;SDS011;63614;56.026;35.960;2022-09-21T08:30:09;3.60;;;2.30;;
75044;SDS011;63614;56.026;35.960;2022-09-21T08:32:38;4.15;;;2.50;;
75044;SDS011;63614;56.026;35.960;2022-09-21T08:35:05;7.10;;;2.63;;
75044;SDS011;63614;56.026;35.960;2022-09-21T08:37:32;3.75;;;2.20;;
75044;SDS011;63614;56.026;35.960;2022-09-21T08:40:01;3.80;;;1.90;;
75044;SDS011;63614;56.026;35.960;2022-09-21T08:42:37;7.70;;;2.00;;
75044;SDS011;63614;56.026;35.960;2022-09-21T08:47:44;3.05;;;1.60;;
75044;SDS011;63614;56.026;35.960;2022-09-21T08:53:20;2.05;;;1.33;;
75044;SDS011;63614;56.026;35.960;2022-09-21T08:55:54;3.65;;;1.40;;
75044;SDS011;63614;56.026;35.960;2022-09-21T08:58:21;2.15;;;1.38;;
75044;SDS011;63614;56.026;35.960;2022-09-21T09:00:56;4.57;;;1.50;;
75044;SDS011;63614;56.026;35.960;2022-09-21T09:09:01;2.88;;;1.27;;
75044;SDS011;63614;56.026;35.960;2022-09-21T09:17:42;2.78;;;1.40;;
75044;SDS011;63614;56.026;35.960;2022-09-21T09:20:29;1.73;;;1.20;;
75044;SDS011;63614;56.026;35.960;2022-09-21T09:23:05;2.42;;;1.20;;
75044;SDS011;63614;56.026;35.960;2022-09-21T09:25:39;2.53;;;1.20;;
75044;SDS011;63614;56.026;35.960;2022-09-21T09:30:55;2.67;;;1.35;;
75044;SDS011;63614;56.026;35.960;2022-09-21T09:33:29;4.18;;;2.03;;
75044;SDS011;63614;56.026;35.960;2022-09-21T09:36:08;2.72;;;1.17;;
75044;SDS011;63614;56.026;35.960;2022-09-21T09:49:48;5.53;;;1.30;;
75044;SDS011;63614;56.026;35.960;2022-09-21T09:52:19;7.43;;;1.40;;
75044;SDS011;63614;56.026;35.960;2022-09-21T09:54:46;1.90;;;1.35;;
75044;SDS011;63614;56.026;35.960;2022-09-21T09:57:12;3.35;;;1.20;;
75044;SDS011;63614;56.026;35.960;2022-09-21T09:59:51;3.55;;;1.75;;
75044;SDS011;63614;56.026;35.960;2022-09-21T10:02:21;2.15;;;1.20;;
75044;SDS011;63614;56.026;35.960;2022-09-21T10:07:40;2.63;;;1.30;;
75044;SDS011;63614;56.026;35.960;2022-09-21T10:13:16;1.85;;;1.10;;
75044;SDS011;63614;56.026;35.960;2022-09-21T10:18:35;2.45;;;1.27;;
75044;SDS011;63614;56.026;35.960;2022-09-21T10:25:59;2.28;;;1.10;;
75044;SDS011;63614;56.026;35.960;2022-09-21T10:28:28;3.90;;;1.48;;
75044;SDS011;63614;56.026;35.960;2022-09-21T10:31:11;2.30;;;1.10;;
75044;SDS011;63614;56.026;35.960;2022-09-21T10:33:47;1.42;;;1.00;;
75044;SDS011;63614;56.026;35.960;2022-09-21T10:36:26;2.80;;;1.13;;
75044;SDS011;63614;56.026;35.960;2022-09-21T10:39:16;1.77;;;1.10;;
75044;SDS011;63614;56.026;35.960;2022-09-21T10:41:47;2.00;;;1.15;;
75044;SDS011;63614;56.026;35.960;2022-09-21T10:44:19;3.22;;;1.40;;
75044;SDS011;63614;56.026;35.960;2022-09-21T10:46:47;1.67;;;1.10;;
75044;SDS011;63614;56.026;35.960;2022-09-21T10:49:14;2.03;;;1.30;;
75044;SDS011;63614;56.026;35.960;2022-09-21T10:51:47;2.65;;;1.15;;
75044;SDS011;63614;56.026;35.960;2022-09-21T10:54:17;2.28;;;1.30;;
75044;SDS011;63614;56.026;35.960;2022-09-21T10:56:53;2.28;;;1.23;;
75044;SDS011;63614;56.026;35.960;2022-09-21T11:01:56;6.97;;;1.90;;
75044;SDS011;63614;56.026;35.960;2022-09-21T11:07:08;3.67;;;1.50;;
75044;SDS011;63614;56.026;35.960;2022-09-21T11:09:52;4.53;;;1.50;;
75044;SDS011;63614;56.026;35.960;2022-09-21T11:12:30;3.13;;;1.83;;
75044;SDS011;63614;56.026;35.960;2022-09-21T11:23:19;5.60;;;2.00;;
75044;SDS011;63614;56.026;35.960;2022-09-21T11:25:59;3.20;;;1.80;;
75044;SDS011;63614;56.026;35.960;2022-09-21T11:28:44;3.72;;;1.98;;
75044;SDS011;63614;56.026;35.960;2022-09-21T11:36:51;6.40;;;2.00;;
75044;SDS011;63614;56.026;35.960;2022-09-21T11:42:18;7.30;;;1.85;;
75044;SDS011;63614;56.026;35.960;2022-09-21T11:44:59;5.47;;;2.15;;
75044;SDS011;63614;56.026;35.960;2022-09-21T12:06:55;5.63;;;2.05;;
75044;SDS011;63614;56.026;35.960;2022-09-21T12:09:39;3.38;;;1.90;;
75044;SDS011;63614;56.026;35.960;2022-09-21T12:12:20;4.13;;;1.90;;
75044;SDS011;63614;56.026;35.960;2022-09-21T12:20:39;4.07;;;2.40;;
75044;SDS011;63614;56.026;35.960;2022-09-21T12:23:20;6.07;;;3.20;;
75044;SDS011;63614;56.026;35.960;2022-09-21T12:25:52;5.38;;;2.63;;
75044;SDS011;63614;56.026;35.960;2022-09-21T12:28:27;7.57;;;2.70;;
75044;SDS011;63614;56.026;35.960;2022-09-21T12:31:08;8.00;;;2.83;;
75044;SDS011;63614;56.026;35.960;2022-09-21T12:33:44;7.53;;;2.83;;
75044;SDS011;63614;56.026;35.960;2022-09-21T12:36:28;6.00;;;2.95;;
75044;SDS011;63614;56.026;35.960;2022-09-21T12:39:19;6.75;;;2.80;;
75044;SDS011;63614;56.026;35.960;2022-09-21T12:42:02;7.28;;;3.55;;
75044;SDS011;63614;56.026;35.960;2022-09-21T12:44:47;5.10;;;2.95;;
75044;SDS011;63614;56.026;35.960;2022-09-21T12:47:43;4.50;;;2.50;;
75044;SDS011;63614;56.026;35.960;2022-09-21T12:50:23;3.83;;;2.35;;
75044;SDS011;63614;56.026;35.960;2022-09-21T12:52:53;4.07;;;2.92;;
75044;SDS011;63614;56.026;35.960;2022-09-21T12:55:23;6.22;;;2.72;;
75044;SDS011;63614;56.026;35.960;2022-09-21T13:03:41;9.35;;;2.40;;
75044;SDS011;63614;56.026;35.960;2022-09-21T13:09:02;4.18;;;2.50;;
75044;SDS011;63614;56.026;35.960;2022-09-21T13:11:30;6.35;;;2.42;;
75044;SDS011;63614;56.026;35.960;2022-09-21T13:13:59;6.85;;;2.78;;
75044;SDS011;63614;56.026;35.960;2022-09-21T13:16:30;6.38;;;2.90;;
75044;SDS011;63614;56.026;35.960;2022-09-21T13:21:38;7.95;;;2.70;;
75044;SDS011;63614;56.026;35.960;2022-09-21T13:24:05;4.82;;;2.65;;
75044;SDS011;63614;56.026;35.960;2022-09-21T13:26:51;9.50;;;2.50;;
75044;SDS011;63614;56.026;35.960;2022-09-21T13:31:56;6.80;;;2.70;;
75044;SDS011;63614;56.026;35.960;2022-09-21T13:34:24;4.63;;;2.80;;
75044;SDS011;63614;56.026;35.960;2022-09-21T13:37:30;12.30;;;3.38;;
75044;SDS011;63614;56.026;35.960;2022-09-21T13:47:39;5.30;;;3.17;;
75044;SDS011;63614;56.026;35.960;2022-09-21T13:50:48;5.07;;;3.10;;
75044;SDS011;63614;56.026;35.960;2022-09-21T13:53:05;5.20;;;3.42;;
75044;SDS011;63614;56.026;35.960;2022-09-21T13:55:47;7.53;;;3.22;;
75044;SDS011;63614;56.026;35.960;2022-09-21T13:58:20;9.00;;;3.10;;
75044;SDS011;63614;56.026;35.960;2022-09-21T14:00:51;4.32;;;2.63;;
75044;SDS011;63614;56.026;35.960;2022-09-21T14:03:24;5.18;;;2.55;;
75044;SDS011;63614;56.026;35.960;2022-09-21T14:09:19;6.38;;;2.70;;
75044;SDS011;63614;56.026;35.960;2022-09-21T14:11:46;4.30;;;2.85;;
75044;SDS011;63614;56.026;35.960;2022-09-21T14:14:34;4.75;;;2.75;;
75044;SDS011;63614;56.026;35.960;2022-09-21T14:17:03;7.22;;;2.90;;
75044;SDS011;63614;56.026;35.960;2022-09-21T14:30:19;7.60;;;2.75;;
75044;SDS011;63614;56.026;35.960;2022-09-21T14:35:31;4.55;;;2.60;;
75044;SDS011;63614;56.026;35.960;2022-09-21T14:38:03;5.03;;;2.45;;
75044;SDS011;63614;56.026;35.960;2022-09-21T14:40:38;4.55;;;2.20;;
75044;SDS011;63614;56.026;35.960;2022-09-21T14:43:11;3.55;;;2.20;;
75044;SDS011;63614;56.026;35.960;2022-09-21T14:45:50;3.97;;;2.15;;
75044;SDS011;63614;56.026;35.960;2022-09-21T14:51:25;2.97;;;2.20;;
75044;SDS011;63614;56.026;35.960;2022-09-21T14:57:21;3.90;;;2.22;;
75044;SDS011;63614;56.026;35.960;2022-09-21T15:05:55;8.15;;;2.50;;
75044;SDS011;63614;56.026;35.960;2022-09-21T15:11:31;4.75;;;2.80;;
75044;SDS011;63614;56.026;35.960;2022-09-21T15:16:48;4.68;;;2.90;;
75044;SDS011;63614;56.026;35.960;2022-09-21T15:19:25;3.20;;;2.42;;
75044;SDS011;63614;56.026;35.960;2022-09-21T15:22:14;3.85;;;2.40;;
75044;SDS011;63614;56.026;35.960;2022-09-21T15:27:16;3.90;;;3.13;;
75044;SDS011;63614;56.026;35.960;2022-09-21T15:29:47;3.90;;;2.53;;
75044;SDS011;63614;56.026;35.960;2022-09-21T15:32:36;4.28;;;2.40;;
75044;SDS011;63614;56.026;35.960;2022-09-21T15:35:20;5.93;;;2.58;;
75044;SDS011;63614;56.026;35.960;2022-09-21T15:37:49;4.93;;;2.63;;
75044;SDS011;63614;56.026;35.960;2022-09-21T15:45:26;5.05;;;2.00;;
75044;SDS011;63614;56.026;35.960;2022-09-21T15:47:53;5.00;;;2.13;;
75044;SDS011;63614;56.026;35.960;2022-09-21T15:50:22;4.70;;;1.80;;
75044;SDS011;63614;56.026;35.960;2022-09-21T15:52:51;3.17;;;1.95;;
75044;SDS011;63614;56.026;35.960;2022-09-21T15:55:22;3.70;;;1.75;;
75044;SDS011;63614;56.026;35.960;2022-09-21T15:57:52;3.90;;;2.10;;
75044;SDS011;63614;56.026;35.960;2022-09-21T16:00:27;6.10;;;1.95;;
75044;SDS011;63614;56.026;35.960;2022-09-21T16:02:57;3.78;;;2.20;;
75044;SDS011;63614;56.026;35.960;2022-09-21T16:05:48;3.38;;;2.38;;
75044;SDS011;63614;56.026;35.960;2022-09-21T16:10:50;4.90;;;1.90;;
75044;SDS011;63614;56.026;35.960;2022-09-21T16:16:06;3.38;;;1.88;;
75044;SDS011;63614;56.026;35.960;2022-09-21T16:18:39;7.15;;;2.10;;
75044;SDS011;63614;56.026;35.960;2022-09-21T16:21:20;6.55;;;2.20;;
75044;SDS011;63614;56.026;35.960;2022-09-21T16:23:47;2.75;;;1.65;;
75044;SDS011;63614;56.026;35.960;2022-09-21T16:26:19;4.03;;;1.95;;
75044;SDS011;63614;56.026;35.960;2022-09-21T16:28:55;2.90;;;2.00;;
75044;SDS011;63614;56.026;35.960;2022-09-21T16:31:24;3.53;;;2.00;;
75044;SDS011;63614;56.026;35.960;2022-09-21T16:38:46;4.97;;;2.25;;
75044;SDS011;63614;56.026;35.960;2022-09-21T16:43:40;3.85;;;2.20;;
75044;SDS011;63614;56.026;35.960;2022-09-21T16:46:11;3.15;;;2.22;;
75044;SDS011;63614;56.026;35.960;2022-09-21T16:48:40;7.38;;;2.15;;
75044;SDS011;63614;56.026;35.960;2022-09-21T16:51:10;5.55;;;2.55;;
75044;SDS011;63614;56.026;35.960;2022-09-21T16:53:37;3.60;;;2.47;;
75044;SDS011;63614;56.026;35.960;2022-09-21T16:56:03;8.00;;;2.35;;
75044;SDS011;63614;56.026;35.960;2022-09-21T16:58:30;6.85;;;2.75;;
75044;SDS011;63614;56.026;35.960;2022-09-21T17:00:55;4.72;;;2.95;;
75044;SDS011;63614;56.026;35.960;2022-09-21T17:03:22;4.68;;;2.90;;
75044;SDS011;63614;56.026;35.960;2022-09-21T17:05:48;4.07;;;2.80;;
75044;SDS011;63614;56.026;35.960;2022-09-21T17:08:13;8.13;;;3.05;;
75044;SDS011;63614;56.026;35.960;2022-09-21T17:10:41;3.43;;;2.40;;
75044;SDS011;63614;56.026;35.960;2022-09-21T17:13:10;4.57;;;2.70;;
75044;SDS011;63614;56.026;35.960;2022-09-21T17:15:40;3.95;;;2.67;;
75044;SDS011;63614;56.026;35.960;2022-09-21T17:18:09;8.13;;;2.90;;
75044;SDS011;63614;56.026;35.960;2022-09-21T17:20:41;3.97;;;2.83;;
75044;SDS011;63614;56.026;35.960;2022-09-21T17:23:08;5.45;;;2.90;;
75044;SDS011;63614;56.026;35.960;2022-09-21T17:25:35;4.78;;;2.92;;
75044;SDS011;63614;56.026;35.960;2022-09-21T17:28:02;5.07;;;3.42;;
75044;SDS011;63614;56.026;35.960;2022-09-21T17:30:37;4.70;;;3.17;;
75044;SDS011;63614;56.026;35.960;2022-09-21T17:33:02;5.10;;;3.10;;
75044;SDS011;63614;56.026;35.960;2022-09-21T17:37:57;4.93;;;2.95;;
75044;SDS011;63614;56.026;35.960;2022-09-21T17:40:24;7.85;;;3.50;;
75044;SDS011;63614;56.026;35.960;2022-09-21T17:45:27;5.10;;;3.17;;
75044;SDS011;63614;56.026;35.960;2022-09-21T17:48:03;6.55;;;3.50;;
75044;SDS011;63614;56.026;35.960;2022-09-21T17:50:29;5.65;;;3.70;;
75044;SDS011;63614;56.026;35.960;2022-09-21T17:52:56;5.73;;;3.57;;
75044;SDS011;63614;56.026;35.960;2022-09-21T17:55:48;4.78;;;3.45;;
75044;SDS011;63614;56.026;35.960;2022-09-21T18:01:06;11.50;;;3.85;;
75044;SDS011;63614;56.026;35.960;2022-09-21T18:03:42;18.33;;;4.40;;
75044;SDS011;63614;56.026;35.960;2022-09-21T18:06:09;6.07;;;3.70;;
75044;SDS011;63614;56.026;35.960;2022-09-21T18:08:37;8.02;;;4.30;;
75044;SDS011;63614;56.026;35.960;2022-09-21T18:11:11;9.57;;;5.32;;
75044;SDS011;63614;56.026;35.960;2022-09-21T18:16:33;10.63;;;4.60;;
75044;SDS011;63614;56.026;35.960;2022-09-21T18:19:23;11.57;;;5.88;;
75044;SDS011;63614;56.026;35.960;2022-09-21T18:22:01;12.10;;;6.60;;
75044;SDS011;63614;56.026;35.960;2022-09-21T18:24:37;11.10;;;5.50;;
75044;SDS011;63614;56.026;35.960;2022-09-21T18:27:12;9.35;;;5.55;;
75044;SDS011;63614;56.026;35.960;2022-09-21T18:29:41;9.30;;;5.68;;
75044;SDS011;63614;56.026;35.960;2022-09-21T18:35:06;16.40;;;5.95;;
75044;SDS011;63614;56.026;35.960;2022-09-21T18:51:51;9.88;;;5.35;;
75044;SDS011;63614;56.026;35.960;2022-09-21T18:54:25;12.48;;;6.30;;
75044;SDS011;63614;56.026;35.960;2022-09-21T18:56:51;10.50;;;6.18;;
75044;SDS011;63614;56.026;35.960;2022-09-21T18:59:18;9.57;;;5.85;;
75044;SDS011;63614;56.026;35.960;2022-09-21T19:01:44;8.00;;;4.70;;
75044;SDS011;63614;56.026;35.960;2022-09-21T19:04:11;10.40;;;5.22;;
75044;SDS011;63614;56.026;35.960;2022-09-21T19:14:55;12.43;;;6.00;;
75044;SDS011;63614;56.026;35.960;2022-09-21T19:20:29;11.80;;;6.90;;
75044;SDS011;63614;56.026;35.960;2022-09-21T19:23:15;8.77;;;5.78;;